Terminal Aerodrome Forecast
Issued by NWS Portland, OR

Home | Current Version | Previous Version | Text Only | Print | Product List | Glossary On
Versions: 1 2 3 4 5 6 7 8 9 10 11 12 13 14 15 16 17 18 19 20 21 22 23 24 25 26 27 28 29 30 31 32 33 34 35 36 37 38 39 40 41
000
FTUS46 KPQR 300744 AAA
TAFHIO
TAF AMD
KHIO 300744Z 3008/3106 VRB02KT 2SM BR SCT003
     FM300830 00000KT 1/4SM FG VV002
     FM302000 VRB03KT 4SM BR SKC
     FM302200 02004KT P6SM SKC=

USA.gov is the U.S. government's official web portal to all federal, state and local government web resources and services.